Time;durP1;ratioP1;P1;durP2;ratioP2;P2;SDS_P1;SDS_P2;PMS_P1;PMS_P2;Temp;Humidity;BMP_temperature;BMP_pressure;BME280_temperature;BME280_humidity;BME280_pressure;Samples;Min_cycle;Max_cycle;Signal;HPM_P1;HPM_P2
2021/09/05 00:02:13;;;;;;;6.30;3.80;;;;;;;12.00;74.06;99401.83;111192;1204;64699;-80
2021/09/05 00:04:40;;;;;;;4.50;3.80;;;;;;;11.96;74.23;99401.56;111143;1197;61130;-78
2021/09/05 00:07:06;;;;;;;4.60;3.00;;;;;;;11.92;74.20;99404.30;111159;1204;63967;-79
2021/09/05 00:09:35;;;;;;;4.40;3.10;;;;;;;11.87;74.43;99406.22;111179;1204;61095;-78
2021/09/05 00:12:03;;;;;;;6.80;3.50;;;;;;;11.83;74.60;99406.83;111240;1198;61051;-78
2021/09/05 00:14:30;;;;;;;11.20;4.40;;;;;;;11.81;74.70;99406.25;111238;1204;64658;-79
2021/09/05 00:16:57;;;;;;;4.80;3.60;;;;;;;11.79;74.94;99405.83;111143;1203;61095;-79
2021/09/05 00:19:24;;;;;;;4.60;3.40;;;;;;;11.76;74.97;99406.89;111173;1204;64011;-79
2021/09/05 00:21:50;;;;;;;6.60;4.10;;;;;;;11.73;74.99;99408.50;111191;1205;61037;-80
2021/09/05 00:24:17;;;;;;;7.00;3.90;;;;;;;11.70;75.10;99410.86;111174;1197;60968;-79
2021/09/05 00:26:46;;;;;;;4.40;3.30;;;;;;;11.65;75.23;99412.04;111174;1205;65902;-80
2021/09/05 00:29:15;;;;;;;8.10;3.70;;;;;;;11.59;75.39;99417.08;111181;1204;61010;-81
2021/09/05 00:31:41;;;;;;;6.10;3.80;;;;;;;11.54;75.55;99413.16;111199;1204;62634;-81
2021/09/05 00:34:08;;;;;;;6.60;3.40;;;;;;;11.50;75.69;99411.80;111206;1204;61018;-80
2021/09/05 00:36:36;;;;;;;7.70;3.80;;;;;;;11.48;75.85;99413.52;111152;1198;61099;-80
2021/09/05 00:39:07;;;;;;;6.80;3.60;;;;;;;11.47;76.02;99415.02;111190;1204;65972;-80
2021/09/05 00:41:34;;;;;;;6.00;3.70;;;;;;;11.44;76.09;99418.19;111131;1205;61052;-79
2021/09/05 00:44:07;;;;;;;8.40;4.20;;;;;;;11.41;76.33;99418.58;111174;1204;62721;-79
2021/09/05 00:46:36;;;;;;;4.80;3.50;;;;;;;11.38;76.43;99415.94;111200;1197;61071;-80
2021/09/05 00:49:05;;;;;;;6.10;4.00;;;;;;;11.36;76.56;99416.39;111207;1197;61551;-78
2021/09/05 00:51:34;;;;;;;7.20;3.80;;;;;;;11.35;76.62;99418.98;111211;1204;64434;-80
2021/09/05 00:54:03;;;;;;;7.40;4.70;;;;;;;11.34;76.95;99416.53;111213;1200;61098;-80
2021/09/05 00:56:33;;;;;;;5.40;4.00;;;;;;;11.34;76.93;99415.49;111198;1204;63715;-81
2021/09/05 00:59:05;;;;;;;5.40;3.60;;;;;;;11.31;76.99;99417.27;111155;1200;61130;-80
2021/09/05 01:01:35;;;;;;;5.40;4.10;;;;;;;11.29;77.05;99419.57;111132;1197;61053;-80
2021/09/05 01:04:02;;;;;;;6.30;4.50;;;;;;;11.26;77.16;99420.77;111163;1204;64808;-81
2021/09/05 01:06:29;;;;;;;7.20;4.40;;;;;;;11.24;77.22;99421.98;111112;1198;61020;-81
2021/09/05 01:08:57;;;;;;;7.00;4.00;;;;;;;11.22;77.29;99419.63;111300;1204;62424;-77
2021/09/05 01:11:24;;;;;;;5.50;3.60;;;;;;;11.20;77.43;99417.79;111182;1204;61056;-81
2021/09/05 01:13:51;;;;;;;6.10;4.10;;;;;;;11.17;77.55;99419.02;111108;1205;61033;-83
2021/09/05 01:16:30;;;;;;;7.80;4.00;;;;;;;11.15;77.59;99419.33;111234;1199;66925;-83
2021/09/05 01:19:08;;;;;;;6.20;4.00;;;;;;;11.12;77.76;99418.64;111253;1198;61134;-79
2021/09/05 01:21:37;;;;;;;7.50;4.30;;;;;;;11.09;77.94;99420.97;111232;1196;63943;-79
2021/09/05 01:24:05;;;;;;;5.80;4.00;;;;;;;11.06;78.00;99424.02;111167;1203;61461;-81
2021/09/05 01:26:35;;;;;;;7.10;4.60;;;;;;;11.03;78.12;99425.79;111235;1196;61130;-80
2021/09/05 01:29:04;;;;;;;7.40;4.90;;;;;;;11.01;78.29;99429.64;111234;1203;66053;-80
2021/09/05 01:31:37;;;;;;;7.20;4.60;;;;;;;10.98;78.50;99431.21;111277;1204;61507;-80
2021/09/05 01:34:03;;;;;;;7.60;5.30;;;;;;;10.95;78.54;99429.83;111195;1204;64054;-80
2021/09/05 01:36:30;;;;;;;7.20;4.80;;;;;;;10.92;78.39;99430.71;111217;1204;61136;-80
2021/09/05 01:38:57;;;;;;;9.80;4.90;;;;;;;10.90;78.57;99435.12;111262;1195;61080;-80
2021/09/05 01:41:23;;;;;;;6.90;4.90;;;;;;;10.87;78.73;99438.13;111167;1204;65666;-79
2021/09/05 01:43:56;;;;;;;8.50;5.50;;;;;;;10.87;78.83;99444.19;111208;1197;61081;-80
2021/09/05 01:46:23;;;;;;;7.00;4.80;;;;;;;10.84;78.93;99447.20;111181;1204;63924;-79
2021/09/05 01:48:50;;;;;;;8.80;5.60;;;;;;;10.83;79.13;99446.92;111201;1204;61088;-79
2021/09/05 01:51:16;;;;;;;10.80;6.30;;;;;;;10.82;79.07;99446.48;111182;1204;61086;-79
2021/09/05 01:53:43;;;;;;;11.70;5.50;;;;;;;10.80;79.19;99447.31;111181;1204;66261;-79
2021/09/05 01:56:10;;;;;;;10.70;5.90;;;;;;;10.75;79.33;99449.70;111170;1204;61097;-80
2021/09/05 01:58:37;;;;;;;8.20;5.10;;;;;;;10.72;79.44;99446.70;111193;1204;63987;-81
2021/09/05 02:01:04;;;;;;;8.80;5.70;;;;;;;10.69;79.68;99450.95;111194;1204;61118;-79
2021/09/05 02:03:30;;;;;;;7.70;5.10;;;;;;;10.66;79.89;99451.11;111162;1197;61095;-79
2021/09/05 02:05:57;;;;;;;8.30;5.50;;;;;;;10.65;79.98;99453.67;111123;1204;65994;-78
2021/09/05 02:08:24;;;;;;;8.40;5.30;;;;;;;10.64;80.15;99453.91;111198;1204;61091;-78
2021/09/05 02:10:51;;;;;;;7.20;5.30;;;;;;;10.62;80.24;99456.72;111162;1204;63869;-79
2021/09/05 02:13:17;;;;;;;9.00;5.40;;;;;;;10.58;80.44;99459.95;111164;1197;61060;-79
2021/09/05 02:15:44;;;;;;;11.40;6.30;;;;;;;10.54;80.59;99458.60;111170;1197;61022;-79
2021/09/05 02:18:11;;;;;;;9.70;6.20;;;;;;;10.49;80.69;99460.70;111109;1204;65875;-79
2021/09/05 02:20:37;;;;;;;9.00;5.70;;;;;;;10.43;80.82;99461.40;111154;1204;60977;-79
2021/09/05 02:23:04;;;;;;;6.00;4.70;;;;;;;10.38;81.11;99464.73;111140;1204;64737;-81
2021/09/05 02:25:31;;;;;;;8.50;4.50;;;;;;;10.34;81.54;99468.48;111138;1204;61092;-79
2021/09/05 02:27:57;;;;;;;7.20;5.60;;;;;;;10.32;81.63;99468.74;111136;1199;61036;-79
2021/09/05 02:30:24;;;;;;;9.90;6.00;;;;;;;10.31;81.71;99471.66;111161;1204;64764;-80
2021/09/05 02:32:50;;;;;;;9.70;5.50;;;;;;;10.29;81.93;99469.86;111140;1204;61085;-80
2021/09/05 02:35:17;;;;;;;8.30;5.70;;;;;;;10.26;81.96;99475.28;111156;1204;63968;-80
2021/09/05 02:37:44;;;;;;;8.70;5.80;;;;;;;10.26;82.08;99474.57;111154;1204;61050;-80
2021/09/05 02:40:11;;;;;;;6.80;4.50;;;;;;;10.25;82.06;99473.73;111151;1198;61122;-80
2021/09/05 02:42:38;;;;;;;8.70;6.40;;;;;;;10.23;82.25;99475.10;111165;1204;64615;-79
2021/09/05 02:45:06;;;;;;;9.40;5.70;;;;;;;10.20;82.24;99480.11;111129;1198;61049;-78
2021/09/05 02:47:33;;;;;;;9.10;5.90;;;;;;;10.16;82.37;99481.21;111148;1204;63965;-79
2021/09/05 02:50:00;;;;;;;6.90;5.30;;;;;;;10.13;82.58;99485.09;111162;1204;61017;-79
2021/09/05 02:52:27;;;;;;;9.70;5.80;;;;;;;10.10;82.71;99483.15;111178;1197;61010;-79
2021/09/05 02:54:53;;;;;;;7.20;5.70;;;;;;;10.08;82.80;99485.06;111162;1204;64757;-79
2021/09/05 02:57:20;;;;;;;11.70;5.70;;;;;;;10.06;82.91;99486.92;111149;1204;61114;-80
2021/09/05 02:59:47;;;;;;;7.60;5.70;;;;;;;10.04;83.02;99489.67;111150;1198;64705;-79
2021/09/05 03:02:14;;;;;;;8.10;5.70;;;;;;;10.03;83.40;99490.83;111125;1198;61157;-79
2021/09/05 03:04:40;;;;;;;12.80;6.60;;;;;;;10.00;83.34;99486.20;111144;1204;61000;-79
2021/09/05 03:07:07;;;;;;;7.40;5.00;;;;;;;9.98;83.49;99482.61;111139;1204;64625;-79
2021/09/05 03:09:36;;;;;;;9.50;6.70;;;;;;;9.96;83.77;99484.87;111185;1204;70213;-79
2021/09/05 03:12:03;;;;;;;7.80;6.50;;;;;;;9.93;83.70;99484.83;111045;1204;62729;-79
2021/09/05 03:14:30;;;;;;;8.40;5.70;;;;;;;9.89;83.65;99479.17;110919;1204;61110;-81
2021/09/05 03:16:56;;;;;;;8.30;6.00;;;;;;;9.84;83.75;99480.15;110889;1197;61004;-81
2021/09/05 03:19:23;;;;;;;7.00;5.80;;;;;;;9.80;83.76;99480.79;110869;1204;65712;-79
2021/09/05 03:21:50;;;;;;;11.90;6.30;;;;;;;9.77;83.82;99483.09;111117;1204;61168;-80
2021/09/05 03:24:16;;;;;;;8.00;5.80;;;;;;;9.75;83.89;99485.29;111112;1204;63878;-79
2021/09/05 03:26:43;;;;;;;11.10;5.90;;;;;;;9.76;84.05;99485.77;111159;1204;61090;-79
2021/09/05 03:29:10;;;;;;;7.80;5.60;;;;;;;9.76;83.96;99487.20;111137;1198;61085;-79
2021/09/05 03:31:37;;;;;;;8.70;5.70;;;;;;;9.75;84.05;99488.84;111135;1204;65961;-79
2021/09/05 03:34:04;;;;;;;11.00;6.30;;;;;;;9.75;84.15;99493.67;111121;1197;61099;-79
2021/09/05 03:36:31;;;;;;;8.40;5.50;;;;;;;9.74;84.20;99498.67;111116;1204;63961;-79
2021/09/05 03:38:58;;;;;;;8.70;5.70;;;;;;;9.73;84.28;99503.00;111123;1197;61112;-79
2021/09/05 03:41:25;;;;;;;7.80;5.40;;;;;;;9.71;84.35;99503.09;111108;1197;60983;-79
2021/09/05 03:43:51;;;;;;;9.00;5.90;;;;;;;9.70;84.41;99503.34;111093;1204;66159;-80
2021/09/05 03:46:18;;;;;;;10.80;7.50;;;;;;;9.68;84.55;99505.20;111081;1204;61004;-80
2021/09/05 03:48:45;;;;;;;8.40;6.20;;;;;;;9.67;84.59;99509.13;111101;1204;63657;-79
2021/09/05 03:51:12;;;;;;;6.40;5.70;;;;;;;9.66;84.55;99505.45;111167;1197;61033;-81
2021/09/05 03:53:38;;;;;;;10.10;6.10;;;;;;;9.64;84.76;99505.20;111147;1197;61033;-80
2021/09/05 03:56:05;;;;;;;8.30;6.30;;;;;;;9.60;84.82;99504.02;111156;1204;67274;-79
2021/09/05 03:58:32;;;;;;;8.70;5.90;;;;;;;9.58;85.04;99509.81;111181;1204;61072;-80
2021/09/05 04:00:58;;;;;;;8.90;6.30;;;;;;;9.57;85.12;99510.42;111120;1199;64741;-80
2021/09/05 04:03:25;;;;;;;8.40;6.20;;;;;;;9.56;85.05;99510.84;111172;1204;61102;-81
2021/09/05 04:05:51;;;;;;;10.50;6.40;;;;;;;9.55;85.08;99513.54;111140;1204;61079;-81
2021/09/05 04:08:18;;;;;;;7.10;5.90;;;;;;;9.56;85.13;99514.94;111156;1204;66617;-84
2021/09/05 04:10:45;;;;;;;8.50;6.50;;;;;;;9.57;85.38;99512.55;111225;1204;61004;-81
2021/09/05 04:13:13;;;;;;;8.20;6.20;;;;;;;9.60;85.30;99513.65;111186;1204;62618;-84
2021/09/05 04:15:42;;;;;;;7.90;6.30;;;;;;;9.62;85.31;99515.61;111220;1198;61110;-85
2021/09/05 04:18:09;;;;;;;11.40;6.50;;;;;;;9.66;85.29;99521.99;111370;1199;61158;-83
2021/09/05 04:20:36;;;;;;;8.70;6.30;;;;;;;9.71;85.34;99524.77;111158;1204;66925;-81
2021/09/05 04:23:03;;;;;;;8.60;6.80;;;;;;;9.74;85.31;99531.13;111186;1204;61085;-84
2021/09/05 04:25:29;;;;;;;10.00;7.00;;;;;;;9.77;85.24;99535.93;111170;1204;63815;-83
2021/09/05 04:27:56;;;;;;;8.50;6.50;;;;;;;9.80;85.19;99540.72;111166;1204;61069;-81
2021/09/05 04:30:23;;;;;;;8.00;6.30;;;;;;;9.82;85.02;99543.63;111173;1204;61088;-81
2021/09/05 04:32:51;;;;;;;8.10;6.40;;;;;;;9.85;84.97;99546.48;111165;1204;66644;-81
2021/09/05 04:35:18;;;;;;;10.10;6.20;;;;;;;9.90;85.02;99552.98;111118;1197;61134;-81
2021/09/05 04:37:44;;;;;;;8.90;6.10;;;;;;;9.94;84.90;99556.80;111174;1204;63863;-80
2021/09/05 04:40:11;;;;;;;8.90;6.00;;;;;;;9.99;84.82;99557.41;111221;1198;61129;-81
2021/09/05 04:42:38;;;;;;;10.90;7.00;;;;;;;10.14;84.67;99560.69;111182;1204;61004;-80
2021/09/05 04:45:05;;;;;;;9.60;6.60;;;;;;;10.24;84.32;99566.33;111253;1197;66784;-80
2021/09/05 04:47:32;;;;;;;8.00;6.20;;;;;;;10.26;84.39;99565.53;111273;1204;61090;-80
2021/09/05 04:49:58;;;;;;;9.00;6.60;;;;;;;10.27;84.28;99569.41;111128;1204;64017;-80
2021/09/05 04:52:25;;;;;;;9.90;6.00;;;;;;;10.30;84.24;99569.61;111160;1197;61234;-80
2021/09/05 04:54:51;;;;;;;8.00;6.20;;;;;;;10.34;84.21;99569.91;111243;1204;61066;-80
2021/09/05 04:57:18;;;;;;;8.80;6.10;;;;;;;10.37;84.12;99565.13;111175;1199;65813;-80
2021/09/05 04:59:45;;;;;;;9.10;6.00;;;;;;;10.38;84.10;99567.71;111155;1204;61014;-80
2021/09/05 05:02:11;;;;;;;11.00;6.40;;;;;;;10.42;84.09;99570.30;111063;1204;63785;-80
2021/09/05 05:04:38;;;;;;;9.60;6.00;;;;;;;10.48;83.97;99568.05;110987;1198;61145;-80
2021/09/05 05:07:04;;;;;;;11.30;6.70;;;;;;;10.52;83.91;99574.55;111161;1197;61079;-80
2021/09/05 05:09:31;;;;;;;11.40;7.00;;;;;;;10.53;83.84;99575.20;111193;1204;66045;-80
2021/09/05 05:11:58;;;;;;;11.20;6.80;;;;;;;10.53;83.67;99575.89;111146;1197;61030;-79
2021/09/05 05:14:24;;;;;;;9.40;6.70;;;;;;;10.57;83.56;99578.39;111144;1204;63636;-80
2021/09/05 05:16:51;;;;;;;9.90;6.60;;;;;;;10.63;83.57;99583.02;111155;1204;61124;-80
2021/09/05 05:19:18;;;;;;;11.10;6.80;;;;;;;10.71;83.39;99586.41;111101;1197;60965;-80
2021/09/05 05:21:44;;;;;;;9.40;6.50;;;;;;;10.80;83.32;99585.39;111168;1204;64476;-80
2021/09/05 05:24:11;;;;;;;9.50;6.10;;;;;;;10.90;83.07;99589.20;111163;1204;61098;-80
2021/09/05 05:26:38;;;;;;;8.10;5.90;;;;;;;11.02;82.92;99594.95;111111;1204;63962;-80
2021/09/05 05:29:04;;;;;;;8.80;6.60;;;;;;;11.12;82.86;99596.79;111142;1204;61171;-81
2021/09/05 05:31:31;;;;;;;7.40;5.60;;;;;;;11.25;82.66;99601.91;111210;1204;61078;-81
2021/09/05 05:33:58;;;;;;;7.70;6.10;;;;;;;11.41;82.49;99602.01;111198;1204;64632;-81
2021/09/05 05:36:24;;;;;;;9.10;6.50;;;;;;;11.64;82.06;99604.55;111153;1203;61020;-82
2021/09/05 05:38:51;;;;;;;8.10;5.80;;;;;;;11.76;81.84;99603.96;111188;1204;63957;-80
2021/09/05 05:41:19;;;;;;;8.20;5.90;;;;;;;11.82;81.45;99604.45;111223;1204;61173;-80
2021/09/05 05:43:47;;;;;;;9.90;6.40;;;;;;;11.87;81.27;99604.59;111162;1204;61035;-80
2021/09/05 05:46:14;;;;;;;8.90;6.00;;;;;;;11.91;81.08;99610.20;111143;1204;65701;-79
2021/09/05 05:48:40;;;;;;;8.10;5.70;;;;;;;11.97;80.86;99608.06;111145;1204;61049;-80
2021/09/05 05:51:07;;;;;;;8.10;5.30;;;;;;;12.03;80.74;99611.91;111169;1204;63677;-80
2021/09/05 05:53:35;;;;;;;10.50;6.20;;;;;;;12.10;80.52;99611.99;111179;1204;61807;-79
2021/09/05 05:56:03;;;;;;;8.10;6.30;;;;;;;12.16;80.32;99614.84;111217;1204;61625;-80
2021/09/05 05:58:30;;;;;;;8.50;6.10;;;;;;;12.23;79.99;99618.66;111169;1204;64653;-80
2021/09/05 06:00:57;;;;;;;8.70;6.80;;;;;;;12.30;79.72;99619.11;111160;1204;61090;-80
2021/09/05 06:03:23;;;;;;;8.30;6.90;;;;;;;12.39;79.69;99619.62;111147;1204;63800;-80
2021/09/05 06:05:50;;;;;;;7.60;6.50;;;;;;;12.50;79.42;99622.32;111171;1204;61074;-80
2021/09/05 06:08:19;;;;;;;8.90;6.30;;;;;;;12.59;79.16;99624.03;111189;1204;61067;-78
2021/09/05 06:10:46;;;;;;;7.20;5.50;;;;;;;12.67;78.85;99623.67;111184;1204;66976;-89
2021/09/05 06:13:13;;;;;;;9.00;5.40;;;;;;;12.79;78.89;99625.25;111225;1204;61092;-80
2021/09/05 06:15:40;;;;;;;6.50;5.10;;;;;;;12.90;78.54;99628.41;111183;1204;63987;-81
2021/09/05 06:18:07;;;;;;;6.80;5.30;;;;;;;12.96;77.70;99625.67;111216;1203;61210;-80
2021/09/05 06:20:34;;;;;;;8.50;5.20;;;;;;;13.02;77.58;99626.92;111230;1197;61204;-81
2021/09/05 06:23:01;;;;;;;7.90;4.90;;;;;;;13.12;77.40;99629.62;111228;1204;65830;-81
2021/09/05 06:25:27;;;;;;;6.80;5.40;;;;;;;13.22;76.75;99630.39;111274;1204;61178;-81
2021/09/05 06:27:54;;;;;;;7.10;5.30;;;;;;;13.31;76.50;99630.35;111182;1205;72956;-81
2021/09/05 06:30:20;;;;;;;7.70;5.00;;;;;;;13.38;76.34;99632.02;111258;1197;61173;-81
2021/09/05 06:32:47;;;;;;;6.60;5.10;;;;;;;13.47;76.01;99634.79;111257;1204;61075;-80
2021/09/05 06:35:14;;;;;;;7.70;5.60;;;;;;;13.53;75.76;99636.66;111267;1204;64479;-82
2021/09/05 06:37:40;;;;;;;8.20;4.90;;;;;;;13.62;75.41;99636.26;111228;1204;61110;-81
2021/09/05 06:40:08;;;;;;;5.80;4.60;;;;;;;13.70;75.39;99636.23;111232;1204;62681;-81
2021/09/05 06:42:35;;;;;;;5.80;5.20;;;;;;;13.79;74.85;99643.30;111261;1204;61556;-81
2021/09/05 06:45:02;;;;;;;7.10;4.60;;;;;;;13.82;74.44;99643.41;111202;1204;61069;-80
2021/09/05 06:47:28;;;;;;;7.20;5.20;;;;;;;13.87;74.65;99650.70;111231;1204;65987;-80
2021/09/05 06:49:55;;;;;;;6.60;4.90;;;;;;;13.96;74.49;99651.91;111205;1198;61080;-81
2021/09/05 06:52:21;;;;;;;7.50;5.20;;;;;;;14.02;74.57;99655.91;111223;1204;62606;-81
2021/09/05 06:54:48;;;;;;;7.30;4.70;;;;;;;14.12;74.20;99651.48;111254;1199;61090;-81
2021/09/05 06:57:15;;;;;;;8.00;4.10;;;;;;;14.22;74.01;99657.02;111224;1204;61059;-81
2021/09/05 06:59:42;;;;;;;5.90;4.40;;;;;;;14.29;73.43;99659.77;111258;1204;64662;-80
2021/09/05 07:02:09;;;;;;;5.50;4.40;;;;;;;14.23;73.09;99664.45;111270;1204;61418;-81
2021/09/05 07:04:36;;;;;;;6.70;4.80;;;;;;;14.24;73.43;99667.10;111193;1197;64085;-82
2021/09/05 07:07:03;;;;;;;6.30;4.70;;;;;;;14.34;73.44;99671.55;111239;1206;61141;-81
2021/09/05 07:09:31;;;;;;;5.80;4.80;;;;;;;14.48;73.32;99677.86;111219;1198;61090;-83
2021/09/05 07:11:58;;;;;;;6.60;4.30;;;;;;;14.65;72.99;99682.23;111294;1204;66189;-81
2021/09/05 07:14:25;;;;;;;7.10;5.30;;;;;;;14.79;72.27;99682.45;111241;1204;61057;-81
2021/09/05 07:16:52;;;;;;;7.60;4.30;;;;;;;14.85;71.73;99686.45;111171;1199;63993;-80
2021/09/05 07:19:19;;;;;;;5.80;4.10;;;;;;;14.90;71.68;99687.20;111204;1198;61085;-85
2021/09/05 07:21:46;;;;;;;5.80;3.80;;;;;;;14.99;70.73;99688.10;111284;1204;60942;-83
2021/09/05 07:24:13;;;;;;;6.00;3.90;;;;;;;15.08;70.30;99693.72;111255;1204;66013;-84
2021/09/05 07:26:41;;;;;;;5.10;3.90;;;;;;;15.12;69.44;99693.26;111271;1204;61011;-83
2021/09/05 07:29:07;;;;;;;4.90;3.70;;;;;;;15.17;69.38;99695.42;111216;1204;63869;-82
2021/09/05 07:31:34;;;;;;;7.70;4.00;;;;;;;15.21;69.34;99697.92;111225;1204;61108;-80
2021/09/05 07:34:01;;;;;;;4.40;3.20;;;;;;;15.30;69.54;99703.33;111217;1199;61123;-81
2021/09/05 07:36:28;;;;;;;4.40;3.50;;;;;;;15.43;69.44;99701.52;111197;1199;65983;-81
2021/09/05 07:38:54;;;;;;;5.30;3.40;;;;;;;15.53;68.76;99709.46;111239;1204;60994;-82
2021/09/05 07:41:21;;;;;;;6.30;3.40;;;;;;;15.64;67.83;99716.39;111213;1198;63786;-82
2021/09/05 07:43:48;;;;;;;4.40;3.60;;;;;;;15.68;66.56;99718.41;111233;1200;61095;-79
2021/09/05 07:46:15;;;;;;;5.20;3.90;;;;;;;15.71;66.34;99717.50;111184;1204;61011;-82
2021/09/05 07:48:42;;;;;;;4.60;3.50;;;;;;;15.77;66.15;99723.05;111219;1204;65787;-80
2021/09/05 07:51:09;;;;;;;5.90;3.90;;;;;;;15.81;65.62;99721.53;111267;1204;61002;-79
2021/09/05 07:53:36;;;;;;;5.20;3.40;;;;;;;15.84;64.55;99727.23;111212;1205;62609;-79
2021/09/05 07:56:03;;;;;;;3.50;3.10;;;;;;;15.85;64.68;99729.88;111176;1204;61013;-80
2021/09/05 07:58:30;;;;;;;3.60;3.10;;;;;;;15.90;64.57;99724.98;111207;1195;61014;-80
2021/09/05 08:00:57;;;;;;;5.80;3.40;;;;;;;16.00;64.70;99727.24;111188;1200;65991;-81
2021/09/05 08:03:23;;;;;;;5.20;2.80;;;;;;;16.11;64.50;99732.86;111243;1201;61135;-82
2021/09/05 08:05:50;;;;;;;4.60;3.10;;;;;;;16.16;63.35;99731.88;111265;1204;63854;-80
2021/09/05 08:08:18;;;;;;;3.50;3.00;;;;;;;16.19;63.10;99735.98;111267;1204;60971;-80
2021/09/05 08:10:45;;;;;;;5.10;3.40;;;;;;;16.20;63.17;99740.95;111252;1197;61088;-80
2021/09/05 08:13:12;;;;;;;5.00;3.10;;;;;;;16.27;62.74;99741.83;111271;1196;64612;-80
2021/09/05 08:15:38;;;;;;;4.00;2.90;;;;;;;16.39;62.49;99744.09;111259;1206;61010;-81
2021/09/05 08:18:06;;;;;;;2.80;2.30;;;;;;;16.53;61.45;99746.91;111241;1204;64024;-81
2021/09/05 08:20:35;;;;;;;5.20;2.60;;;;;;;16.64;60.61;99749.80;111194;1205;61169;-81
2021/09/05 08:23:02;;;;;;;2.90;2.10;;;;;;;16.75;59.60;99749.15;111178;1200;61011;-81
2021/09/05 08:25:30;;;;;;;5.80;1.90;;;;;;;16.80;57.28;99750.73;111219;1204;65857;-81
2021/09/05 08:27:57;;;;;;;4.60;2.30;;;;;;;16.86;57.61;99746.32;111203;1204;60975;-81
2021/09/05 08:30:24;;;;;;;2.60;1.70;;;;;;;16.98;57.74;99746.03;111219;1206;72427;-81
2021/09/05 08:32:51;;;;;;;2.60;1.90;;;;;;;17.10;57.39;99749.18;111262;1204;60997;-81
2021/09/05 08:35:18;;;;;;;4.10;2.70;;;;;;;17.26;56.67;99754.11;111249;1195;61070;-80
2021/09/05 08:37:45;;;;;;;3.90;2.20;;;;;;;17.38;56.06;99751.36;111313;1204;65958;-81
2021/09/05 08:40:12;;;;;;;2.60;2.30;;;;;;;17.50;55.50;99753.73;111238;1204;60951;-81
2021/09/05 08:42:39;;;;;;;2.50;1.60;;;;;;;17.63;56.01;99753.40;111263;1204;62613;-81
2021/09/05 08:45:07;;;;;;;3.30;1.70;;;;;;;17.73;54.21;99758.42;111232;1196;61034;-80
2021/09/05 08:47:36;;;;;;;2.10;1.60;;;;;;;17.67;52.42;99760.81;111282;1204;61015;-80
2021/09/05 08:50:06;;;;;;;2.40;1.30;;;;;;;17.60;51.71;99766.81;111268;1204;64798;-80
2021/09/05 08:52:34;;;;;;;;;;;;;;;17.58;52.26;99764.05;111282;1204;60977;-80
2021/09/05 08:55:02;;;;;;;3.40;1.90;;;;;;;17.62;53.05;99761.97;111191;1204;64092;-80
2021/09/05 08:57:30;;;;;;;3.30;1.90;;;;;;;17.78;54.11;99765.12;111209;1204;61088;-80
2021/09/05 08:59:58;;;;;;;3.60;1.80;;;;;;;17.92;53.89;99765.02;111270;1195;60977;-78
2021/09/05 09:02:42;;;;;;;1.90;1.70;;;;;;;17.95;53.33;99766.85;111238;1204;64658;-80
2021/09/05 09:05:10;;;;;;;2.00;1.70;;;;;;;17.98;51.79;99768.59;111191;1204;61194;-80
2021/09/05 09:07:45;;;;;;;2.00;1.50;;;;;;;17.97;51.95;99771.41;111237;1205;63772;-79
2021/09/05 09:10:14;;;;;;;2.60;1.60;;;;;;;17.89;51.56;99769.05;111219;1195;61013;-80
2021/09/05 09:12:48;;;;;;;2.00;1.40;;;;;;;17.82;51.99;99771.30;111267;1204;61056;-80
2021/09/05 09:15:31;;;;;;;2.10;1.20;;;;;;;17.77;50.41;99772.20;111214;1204;65991;-79
2021/09/05 09:18:04;;;;;;;2.00;1.60;;;;;;;17.65;50.44;99774.45;111255;1204;69005;-80
2021/09/05 09:20:43;;;;;;;1.60;1.50;;;;;;;17.61;51.08;99775.48;111201;1205;63736;-80
2021/09/05 09:23:16;;;;;;;1.90;1.60;;;;;;;17.68;51.94;99775.63;111212;1205;61077;-80
2021/09/05 09:26:01;;;;;;;2.60;1.50;;;;;;;17.77;51.78;99775.40;111215;1198;61014;-80
2021/09/05 09:28:31;;;;;;;2.80;1.50;;;;;;;17.80;51.46;99776.04;111183;1205;65921;-80
2021/09/05 09:31:01;;;;;;;1.10;1.00;;;;;;;17.86;51.77;99771.96;111202;1205;61130;-81
2021/09/05 09:33:30;;;;;;;2.30;1.30;;;;;;;17.94;51.46;99777.04;111250;1204;64150;-81
2021/09/05 09:36:02;;;;;;;2.50;1.30;;;;;;;17.94;49.51;99780.76;111221;1204;61093;-81
2021/09/05 09:38:29;;;;;;;1.30;1.10;;;;;;;17.88;48.34;99777.52;111251;1205;61114;-80
2021/09/05 09:41:09;;;;;;;2.00;1.10;;;;;;;17.85;48.94;99777.14;111245;1205;64669;-81
2021/09/05 09:43:57;;;;;;;1.70;1.20;;;;;;;17.98;50.36;99769.88;111272;1204;61174;-81
2021/09/05 09:46:26;;;;;;;1.70;1.10;;;;;;;18.20;50.90;99769.73;111215;1204;63964;-81
2021/09/05 09:48:56;;;;;;;1.90;1.30;;;;;;;18.32;50.96;99768.91;111279;1199;61098;-81
2021/09/05 09:51:23;;;;;;;1.60;1.00;;;;;;;18.36;50.04;99773.59;111280;1198;59960;-81
2021/09/05 09:53:51;;;;;;;2.10;1.10;;;;;;;18.38;48.89;99773.29;111170;1203;64746;-81
2021/09/05 09:56:20;;;;;;;2.30;1.30;;;;;;;18.32;48.26;99771.44;111223;1204;61006;-80
2021/09/05 09:58:49;;;;;;;;;;;;;;;18.27;48.86;99769.70;111306;1205;62434;-80
2021/09/05 10:01:18;;;;;;;1.90;1.20;;;;;;;18.25;47.67;99767.95;111248;1204;60986;-81
2021/09/05 10:03:48;;;;;;;1.20;1.10;;;;;;;18.18;46.94;99772.67;111324;1198;61072;-81
2021/09/05 10:06:16;;;;;;;1.70;0.90;;;;;;;18.09;46.64;99773.95;111263;1205;65111;-81
2021/09/05 10:08:46;;;;;;;1.60;1.40;;;;;;;17.99;45.92;99781.98;111239;1205;61047;-81
2021/09/05 10:11:17;;;;;;;1.10;1.00;;;;;;;17.96;45.95;99779.98;111155;1206;62628;-80
2021/09/05 10:13:45;;;;;;;1.80;0.90;;;;;;;17.94;44.96;99777.73;111283;1204;61004;-82
2021/09/05 10:16:12;;;;;;;1.30;1.00;;;;;;;17.87;44.65;99779.45;111295;1202;60976;-82
2021/09/05 10:18:44;;;;;;;2.70;1.00;;;;;;;17.90;45.60;99778.67;111263;1204;65813;-81
2021/09/05 10:21:19;;;;;;;1.70;1.00;;;;;;;18.00;45.49;99775.27;111292;1205;61044;-82
2021/09/05 10:23:53;;;;;;;1.20;1.00;;;;;;;18.08;45.58;99773.17;111186;1206;64090;-82
2021/09/05 10:26:22;;;;;;;1.60;1.00;;;;;;;18.14;45.42;99772.48;111281;1205;61056;-81
2021/09/05 10:28:57;;;;;;;1.60;1.30;;;;;;;18.17;45.03;99768.61;111190;1197;61013;-81
2021/09/05 10:31:30;;;;;;;3.90;1.00;;;;;;;18.11;44.73;99769.44;111277;1204;66066;-81
2021/09/05 10:33:59;;;;;;;1.00;0.90;;;;;;;18.16;45.58;99769.27;111135;1205;61082;-81
2021/09/05 10:36:28;;;;;;;2.10;1.20;;;;;;;18.26;45.43;99768.88;111244;1205;64919;-81
2021/09/05 10:39:08;;;;;;;;;;;;;;;18.41;46.15;99765.13;111174;1203;61038;-82
2021/09/05 10:41:51;;;;;;;1.40;0.90;;;;;;;18.52;45.99;99764.13;111268;1198;61116;-81
2021/09/05 10:44:19;;;;;;;2.20;1.00;;;;;;;18.61;45.58;99767.06;111118;1205;66092;-81
2021/09/05 10:46:49;;;;;;;1.80;0.80;;;;;;;18.69;45.70;99767.50;111213;1204;61596;-81
2021/09/05 10:49:18;;;;;;;2.40;1.10;;;;;;;18.72;44.70;99767.96;111306;1198;63997;-81
2021/09/05 10:51:51;;;;;;;1.50;1.00;;;;;;;18.71;44.93;99766.60;111265;1205;61091;-81
2021/09/05 10:54:27;;;;;;;1.30;1.20;;;;;;;18.71;45.00;99766.40;111248;1198;61055;-82
2021/09/05 10:56:57;;;;;;;1.20;1.00;;;;;;;18.79;45.09;99768.27;111312;1204;64645;-81
2021/09/05 10:59:31;;;;;;;1.20;1.10;;;;;;;18.85;44.84;99766.63;111206;1203;61081;-82
2021/09/05 11:02:00;;;;;;;1.60;1.00;;;;;;;18.89;43.78;99766.70;111291;1197;65004;-82
2021/09/05 11:04:41;;;;;;;1.20;0.90;;;;;;;18.91;44.88;99764.69;111300;1205;61084;-83
2021/09/05 11:07:29;;;;;;;1.60;1.00;;;;;;;19.02;45.24;99765.48;111281;1197;61425;-82
2021/09/05 11:09:57;;;;;;;1.30;1.20;;;;;;;19.12;45.06;99761.37;111282;1204;66979;-83
2021/09/05 11:12:42;;;;;;;2.20;1.10;;;;;;;19.16;45.23;99761.71;111282;1198;61787;-82
2021/09/05 11:15:13;;;;;;;2.90;1.30;;;;;;;19.21;44.84;99765.37;111239;1198;64033;-81
2021/09/05 11:17:40;;;;;;;1.20;1.10;;;;;;;19.23;45.25;99763.79;111221;1205;61061;-81
2021/09/05 11:20:13;;;;;;;2.30;1.40;;;;;;;19.29;44.85;99761.83;111189;1203;61216;-81
2021/09/05 11:22:43;;;;;;;1.70;1.10;;;;;;;19.31;45.68;99759.61;111238;1204;66682;-81
2021/09/05 11:25:13;;;;;;;;;;;;;;;19.37;45.70;99762.34;111306;1205;61071;-80
2021/09/05 11:27:47;;;;;;;1.90;1.20;;;;;;;19.36;45.38;99760.82;111251;1205;63659;-80
2021/09/05 11:30:17;;;;;;;1.60;1.30;;;;;;;19.33;45.57;99758.36;111269;1202;61113;-80
2021/09/05 11:32:45;;;;;;;2.40;1.40;;;;;;;19.32;45.80;99757.23;111157;1198;61439;-80